KLAX/LAX METAR and TAF weather

Enter ICAO airport designator
Station Type Date Time Source
KLAX METAR 2024/02/26 17:53 UTC NOAA

KLAX 261753Z 00000KT 7SM FEW045 SCT120 OVC180 14/11 A3007 RMK AO2 SLP182 T01440111 10144 20117 53017 $


Station Type Date Time Source
KLAX Decoded METAR 2024/02/26 17:53 UTC NOAA

LOS ANGELES INTERNTL AIRPORT, CA, United States (KLAX) 33-56N 118-23W 46M
Feb 26, 2024 - 12:53 PM EST / 2024.02.26 1753 UTC
Wind: Calm:0
Visibility: 7 mile(s):0
Sky conditions: overcast
Temperature: 57.9 F (14.4 C)
Dew Point: 52.0 F (11.1 C)
Relative Humidity: 80%
Pressure (altimeter): 30.07 in. Hg (1018 hPa)
Pressure tendency: 0.05 inches (1.7 hPa) higher than three hours ago
ob: KLAX 261753Z 00000KT 7SM FEW045 SCT120 OVC180 14/11 A3007 RMK AO2 SLP182 T01440111 10144 20117 53017
cycle: 18

Station Type Date Time Source
KLAX TAF 2024/02/26 18:42 UTC NOAA